Date,TemperatureHighF,TemperatureAvgF,TemperatureLowF,DewpointHighF,DewpointAvgF,DewpointLowF,HumidityHigh,HumidityAvg,HumidityLow,PressureMaxIn,PressureMinIn,WindSpeedMaxMPH,WindSpeedAvgMPH,GustSpeedMaxMPH,PrecipitationSumIn
2013-12-4,80,73,65,68,66,63,96,79,67,30.07,29.96,1,0,10,0.00
2013-12-5,81,77,72,72,69,66,85,77,70,30.14,30.06,7,1,14,0.00
2013-12-6,82,78,75,70,69,67,82,75,67,30.16,30.07,6,0,17,0.00
2013-12-7,82,75,69,72,69,66,92,81,70,30.19,30.11,9,2,16,0.08
2013-12-8,82,78,74,72,69,65,83,74,66,30.18,30.10,9,2,18,0.00
2013-12-9,82,78,76,71,69,67,82,74,63,30.17,30.09,4,0,17,0.00
2013-12-10,82,78,73,72,71,69,92,80,71,30.14,30.06,4,0,12,0.00
2013-12-11,82,76,70,73,70,68,96,84,69,30.17,30.10,5,1,12,0.00
2013-12-12,78,73,70,70,66,60,96,80,65,30.19,30.11,13,4,20,0.00
2013-12-13,76,73,71,68,63,58,82,71,64,30.17,30.07,12,7,20,0.00
2013-12-14,80,78,75,72,71,68,84,80,74,30.09,29.97,7,2,22,0.00
2013-12-15,83,76,71,74,71,67,93,84,74,30.03,29.91,5,0,16,0.00
2013-12-16,74,67,61,66,61,58,90,79,65,30.12,30.01,4,1,13,0.00
2013-12-17,76,67,59,64,59,57,93,76,59,30.16,30.08,5,1,15,0.00
2013-12-18,75,66,61,59,58,56,90,75,53,30.21,30.11,7,2,18,0.00
2013-12-19,76,72,62,64,60,57,85,67,58,30.21,30.14,9,3,16,0.00
2013-12-20,79,77,74,70,67,62,79,73,69,30.17,30.08,7,4,17,0.00
2013-12-21,81,78,76,73,71,69,84,80,74,30.12,30.05,10,2,18,0.00
2013-12-22,82,79,77,73,72,71,86,81,73,30.14,30.06,5,1,17,0.00
2013-12-23,82,78,71,74,72,68,94,83,75,30.15,30.09,5,0,15,0.00
2013-12-24,80,72,68,72,67,63,97,85,69,30.15,30.06,11,2,19,0.01
2013-12-25,75,73,71,67,65,64,80,77,70,30.15,30.08,14,8,22,0.00
2013-12-26,77,75,73,70,69,66,85,81,78,30.14,30.05,12,4,16,0.00
2013-12-27,79,76,74,71,69,68,85,79,76,30.17,30.06,12,4,18,0.00
2013-12-28,78,76,75,72,70,68,91,82,78,30.15,30.01,15,6,19,0.03
2013-12-29,78,77,76,73,72,72,87,87,86,30.01,29.93,5,1,19,0.00